Time;durP1;ratioP1;P1;durP2;ratioP2;P2;SDS_P1;SDS_P2;PMS_P1;PMS_P2;Temp;Humidity;BMP_temperature;BMP_pressure;BME280_temperature;BME280_humidity;BME280_pressure;Samples;Min_cycle;Max_cycle;Signal;HPM_P1;HPM_P2
2021/07/16 00:01:24;;;;;;;0.30;0.00;;;21.40;59.60;;;;;;4917120;28;20044;-84
2021/07/16 00:03:50;;;;;;;0.47;0.13;;;21.30;59.70;;;;;;4916831;29;20150;-85
2021/07/16 00:06:16;;;;;;;0.55;0.30;;;21.30;59.80;;;;;;4931453;29;20039;-84
2021/07/16 00:08:42;;;;;;;0.30;0.10;;;21.30;60.00;;;;;;4917053;29;20055;-83
2021/07/16 00:11:08;;;;;;;0.00;0.00;;;21.20;60.10;;;;;;4916887;29;20040;-84
2021/07/16 00:13:35;;;;;;;0.10;0.10;;;21.10;60.20;;;;;;4914179;29;20483;-85
2021/07/16 00:16:01;;;;;;;0.30;0.10;;;21.10;60.20;;;;;;4916878;28;20032;-84
2021/07/16 00:18:27;;;;;;;0.00;0.00;;;21.10;60.40;;;;;;4916450;29;20498;-85
2021/07/16 00:20:53;;;;;;;1.70;0.15;;;21.00;60.40;;;;;;4947482;28;20040;-85
2021/07/16 00:23:19;;;;;;;0.75;0.10;;;21.00;60.50;;;;;;4916791;29;20475;-84
2021/07/16 00:25:46;;;;;;;0.40;0.10;;;21.00;60.50;;;;;;4916701;29;20036;-84
2021/07/16 00:28:12;;;;;;;0.55;0.20;;;21.00;60.60;;;;;;4917236;29;20028;-84
2021/07/16 00:30:38;;;;;;;0.22;0.08;;;20.90;60.70;;;;;;4946154;28;20047;-84
2021/07/16 00:33:05;;;;;;;0.70;0.10;;;21.00;60.80;;;;;;4916508;29;20407;-84
2021/07/16 00:35:31;;;;;;;0.38;0.03;;;20.90;60.90;;;;;;4912888;29;20036;-84
2021/07/16 00:37:57;;;;;;;0.35;0.15;;;20.90;60.90;;;;;;4915413;29;20028;-84
2021/07/16 00:40:25;;;;;;;0.22;0.05;;;20.80;60.90;;;;;;4947160;29;20372;-84
2021/07/16 00:42:51;;;;;;;0.00;0.00;;;20.80;61.10;;;;;;4946874;29;20415;-84
2021/07/16 00:45:17;;;;;;;0.10;0.03;;;20.80;61.10;;;;;;4914383;28;20044;-84
2021/07/16 00:47:44;;;;;;;0.15;0.10;;;20.80;61.30;;;;;;4914059;29;20044;-84
2021/07/16 00:50:15;;;;;;;0.40;0.10;;;20.70;61.30;;;;;;4916277;29;20024;-84
2021/07/16 00:52:41;;;;;;;0.35;0.20;;;20.70;61.40;;;;;;4914504;29;20523;-84
2021/07/16 00:55:08;;;;;;;4.18;0.13;;;20.70;61.50;;;;;;4917215;29;20032;-84
2021/07/16 00:57:34;;;;;;;0.00;0.00;;;20.60;61.50;;;;;;4916190;29;20146;-83
2021/07/16 01:00:00;;;;;;;2.65;0.15;;;20.70;61.70;;;;;;4914888;29;20023;-83
2021/07/16 01:02:26;;;;;;;0.55;0.20;;;20.60;61.70;;;;;;4911299;28;20044;-83
2021/07/16 01:04:53;;;;;;;0.95;0.03;;;20.60;61.80;;;;;;4916938;28;20039;-84
2021/07/16 01:07:19;;;;;;;0.75;0.10;;;20.60;61.90;;;;;;4916361;29;20070;-84
2021/07/16 01:09:50;;;;;;;0.13;0.10;;;20.60;61.90;;;;;;4914689;29;20043;-84
2021/07/16 01:12:17;;;;;;;0.25;0.05;;;20.60;62.00;;;;;;4929362;29;20066;-85
2021/07/16 01:14:43;;;;;;;0.10;0.00;;;20.50;62.00;;;;;;4913406;29;20043;-84
2021/07/16 01:17:09;;;;;;;0.00;0.00;;;20.50;62.10;;;;;;4914379;28;20055;-84
2021/07/16 01:19:47;;;;;;;0.35;0.10;;;20.50;62.20;;;;;;4944789;29;20444;-84
2021/07/16 01:22:14;;;;;;;0.57;0.10;;;20.50;62.40;;;;;;4944407;29;20025;-85
2021/07/16 01:24:40;;;;;;;4.03;0.55;;;20.40;62.30;;;;;;4914616;29;20043;-84
2021/07/16 01:27:06;;;;;;;0.43;0.10;;;20.40;62.40;;;;;;4915618;29;20036;-84
2021/07/16 01:29:33;;;;;;;0.25;0.03;;;20.40;62.50;;;;;;4927678;29;20032;-82
2021/07/16 01:32:00;;;;;;;0.10;0.10;;;20.40;62.60;;;;;;4930398;28;20507;-84
2021/07/16 01:34:26;;;;;;;0.70;0.10;;;20.40;62.60;;;;;;4962631;28;20130;-84
2021/07/16 01:36:52;;;;;;;0.85;0.40;;;20.40;62.70;;;;;;4946641;29;20415;-84
2021/07/16 01:39:18;;;;;;;0.80;0.35;;;20.40;62.80;;;;;;4915716;29;20032;-84
2021/07/16 01:41:44;;;;;;;0.57;0.30;;;20.40;62.80;;;;;;4913480;29;20043;-84
2021/07/16 01:44:10;;;;;;;0.73;0.10;;;20.40;62.80;;;;;;4914469;29;20040;-83
2021/07/16 01:46:36;;;;;;;0.30;0.00;;;20.40;62.90;;;;;;4915274;28;20472;-83
2021/07/16 01:49:03;;;;;;;0.30;0.00;;;20.40;62.90;;;;;;4946432;29;20048;-84
2021/07/16 01:51:29;;;;;;;0.22;0.10;;;20.30;62.90;;;;;;4914596;29;20028;-84
2021/07/16 01:53:57;;;;;;;0.43;0.20;;;20.30;63.00;;;;;;4914409;29;20402;-84
2021/07/16 01:56:23;;;;;;;1.30;0.30;;;20.30;63.10;;;;;;4927189;29;20048;-86
2021/07/16 01:58:50;;;;;;;0.73;0.08;;;20.30;63.10;;;;;;4915110;29;20380;-83
2021/07/16 02:01:16;;;;;;;0.32;0.10;;;20.30;63.20;;;;;;4946275;28;20037;-83
2021/07/16 02:03:44;;;;;;;0.00;0.00;;;20.30;63.30;;;;;;4917241;29;20024;-84
2021/07/16 02:06:11;;;;;;;0.25;0.10;;;20.20;63.30;;;;;;4910339;29;20518;-83
2021/07/16 02:08:37;;;;;;;0.22;0.10;;;20.30;63.40;;;;;;4932222;29;20056;-83
2021/07/16 02:11:03;;;;;;;0.15;0.10;;;20.20;63.40;;;;;;4948753;28;20032;-82
2021/07/16 02:13:29;;;;;;;1.70;0.20;;;20.20;63.40;;;;;;4913712;29;20040;-82
2021/07/16 02:15:55;;;;;;;0.65;0.28;;;20.20;63.50;;;;;;4916688;28;20048;-84
2021/07/16 02:18:22;;;;;;;0.30;0.10;;;20.20;63.60;;;;;;4944665;28;20044;-83
2021/07/16 02:20:48;;;;;;;2.85;0.35;;;20.20;63.70;;;;;;4944236;28;20422;-83
2021/07/16 02:23:35;;;;;;;0.15;0.05;;;20.20;63.80;;;;;;4961362;28;20040;-83
2021/07/16 02:26:01;;;;;;;2.17;0.35;;;20.10;63.80;;;;;;4929556;29;20040;-83
2021/07/16 02:28:29;;;;;;;0.20;0.00;;;20.10;63.90;;;;;;4917073;29;20039;-84
2021/07/16 02:30:56;;;;;;;0.52;0.22;;;20.10;63.90;;;;;;4930473;28;20028;-83
2021/07/16 02:33:22;;;;;;;0.13;0.00;;;20.10;64.10;;;;;;4916861;29;20066;-82
2021/07/16 02:35:48;;;;;;;0.40;0.10;;;20.00;64.00;;;;;;4947461;28;20032;-84
2021/07/16 02:38:14;;;;;;;0.22;0.10;;;20.00;64.10;;;;;;4918647;29;20043;-83
2021/07/16 02:40:40;;;;;;;1.15;0.15;;;20.00;64.10;;;;;;4918596;29;20028;-83
2021/07/16 02:43:06;;;;;;;1.40;0.25;;;20.00;64.20;;;;;;4918597;29;20028;-83
2021/07/16 02:45:33;;;;;;;0.43;0.30;;;20.00;64.20;;;;;;4916767;28;20032;-82
2021/07/16 02:47:59;;;;;;;0.57;0.40;;;20.00;64.30;;;;;;4933353;29;20043;-83
2021/07/16 02:50:26;;;;;;;0.10;0.00;;;20.00;64.30;;;;;;4918371;29;20032;-84
2021/07/16 02:52:53;;;;;;;0.43;0.10;;;20.00;64.40;;;;;;4933153;29;20548;-81
2021/07/16 02:55:19;;;;;;;29.42;0.47;;;20.00;64.40;;;;;;4918835;29;20384;-83
2021/07/16 02:57:45;;;;;;;0.25;0.00;;;20.00;64.50;;;;;;4918386;29;20403;-83
2021/07/16 03:00:13;;;;;;;0.20;0.10;;;19.90;64.60;;;;;;4916734;28;20487;-83
2021/07/16 03:02:46;;;;;;;1.13;0.22;;;19.90;64.60;;;;;;4915726;29;20028;-84
2021/07/16 03:05:15;;;;;;;0.30;0.30;;;19.90;64.70;;;;;;4918368;29;20036;-84
2021/07/16 03:07:41;;;;;;;0.47;0.05;;;19.90;64.70;;;;;;4916323;29;20033;-84
2021/07/16 03:10:09;;;;;;;0.13;0.00;;;19.90;64.80;;;;;;4918380;29;20468;-83
2021/07/16 03:12:39;;;;;;;0.40;0.10;;;19.90;65.60;;;;;;4917470;29;20036;-83
2021/07/16 03:15:10;;;;;;;1.13;0.20;;;19.90;64.90;;;;;;4917482;28;20498;-83
2021/07/16 03:17:39;;;;;;;0.68;0.08;;;19.80;64.90;;;;;;4917820;29;20024;-84
2021/07/16 03:20:07;;;;;;;0.50;0.30;;;19.80;64.90;;;;;;4916994;29;20063;-83
2021/07/16 03:22:33;;;;;;;0.35;0.10;;;19.80;65.10;;;;;;4915039;29;20033;-81
2021/07/16 03:24:59;;;;;;;1.65;0.30;;;19.80;65.10;;;;;;4948505;29;20032;-82
2021/07/16 03:27:25;;;;;;;0.57;0.17;;;19.80;65.20;;;;;;4916562;29;20471;-84
2021/07/16 03:29:51;;;;;;;0.65;0.30;;;19.70;65.20;;;;;;4916519;29;20029;-83
2021/07/16 03:32:17;;;;;;;0.45;0.10;;;19.70;65.20;;;;;;4915992;28;20483;-84
2021/07/16 03:34:43;;;;;;;0.38;0.20;;;19.70;65.40;;;;;;4915311;29;20067;-82
2021/07/16 03:37:09;;;;;;;0.65;0.20;;;19.70;65.50;;;;;;4918083;29;20031;-84
2021/07/16 03:39:36;;;;;;;6.75;0.30;;;19.70;65.50;;;;;;4917239;29;20043;-84
2021/07/16 03:42:02;;;;;;;0.38;0.10;;;19.70;65.50;;;;;;4917465;29;20028;-83
2021/07/16 03:44:29;;;;;;;0.38;0.10;;;19.70;65.50;;;;;;4917416;29;20031;-84
2021/07/16 03:46:58;;;;;;;0.70;0.35;;;19.80;65.50;;;;;;4916279;28;20036;-82
2021/07/16 03:49:26;;;;;;;0.43;0.13;;;19.80;65.60;;;;;;4917678;29;20043;-82
2021/07/16 03:51:53;;;;;;;1.48;0.38;;;19.70;65.60;;;;;;4918325;29;20055;-83
2021/07/16 03:54:19;;;;;;;7.63;0.40;;;19.70;65.70;;;;;;4916879;29;20040;-84
2021/07/16 03:56:45;;;;;;;0.10;0.10;;;19.70;65.70;;;;;;4915420;29;20395;-83
2021/07/16 03:59:12;;;;;;;2.60;0.17;;;19.70;65.70;;;;;;4917331;29;20043;-83
2021/07/16 04:01:38;;;;;;;1.27;0.25;;;19.70;65.70;;;;;;4916849;28;20036;-84
2021/07/16 04:04:04;;;;;;;2.10;0.50;;;19.70;65.80;;;;;;4917579;29;20040;-83
2021/07/16 04:06:31;;;;;;;0.73;0.15;;;19.70;65.80;;;;;;4915695;29;20036;-83
2021/07/16 04:09:10;;;;;;;0.15;0.10;;;19.70;65.90;;;;;;4916718;29;20043;-83
2021/07/16 04:11:37;;;;;;;0.88;0.25;;;19.70;65.90;;;;;;4912813;29;20036;-83
2021/07/16 04:14:04;;;;;;;0.80;0.08;;;19.60;65.90;;;;;;4916869;29;20055;-84
2021/07/16 04:16:30;;;;;;;0.10;0.10;;;19.60;65.90;;;;;;4947228;28;20498;-83
2021/07/16 04:18:57;;;;;;;0.32;0.13;;;19.60;66.00;;;;;;4917598;29;20051;-83
2021/07/16 04:21:23;;;;;;;0.30;0.10;;;19.60;66.00;;;;;;4915826;29;20383;-83
2021/07/16 04:23:49;;;;;;;0.63;0.30;;;19.60;66.10;;;;;;4916482;29;20035;-83
2021/07/16 04:26:15;;;;;;;2.42;0.20;;;19.60;66.20;;;;;;4916699;29;20488;-83
2021/07/16 04:28:41;;;;;;;1.20;0.20;;;19.50;66.20;;;;;;4914673;29;20040;-82
2021/07/16 04:31:07;;;;;;;0.47;0.10;;;19.60;66.30;;;;;;4916703;28;20514;-83
2021/07/16 04:33:33;;;;;;;1.02;0.30;;;19.50;66.30;;;;;;4916345;29;20068;-85
2021/07/16 04:35:59;;;;;;;0.32;0.20;;;19.60;66.30;;;;;;4915501;29;20037;-83
2021/07/16 04:38:25;;;;;;;0.10;0.10;;;19.50;66.30;;;;;;4912215;29;20040;-82
2021/07/16 04:40:51;;;;;;;0.90;0.40;;;19.60;66.40;;;;;;4901353;29;20491;-83
2021/07/16 04:43:17;;;;;;;0.17;0.10;;;19.60;66.40;;;;;;4947373;29;20028;-83
2021/07/16 04:45:43;;;;;;;1.35;0.25;;;19.60;66.40;;;;;;4915951;28;20484;-83
2021/07/16 04:48:10;;;;;;;0.30;0.10;;;19.60;66.30;;;;;;4911328;29;20037;-82
2021/07/16 04:50:37;;;;;;;1.25;0.40;;;19.60;66.30;;;;;;4928794;29;20032;-83
2021/07/16 04:53:03;;;;;;;0.75;0.10;;;19.70;66.40;;;;;;4916636;28;20419;-82
2021/07/16 04:55:30;;;;;;;0.30;0.10;;;19.70;66.40;;;;;;4916637;29;20400;-83
2021/07/16 04:57:56;;;;;;;0.40;0.20;;;19.70;66.40;;;;;;4946969;29;20036;-83
2021/07/16 05:00:22;;;;;;;0.85;0.10;;;19.70;66.50;;;;;;4930241;28;20447;-83
2021/07/16 05:02:48;;;;;;;0.75;0.10;;;19.70;66.50;;;;;;4914472;29;20028;-84
2021/07/16 05:05:14;;;;;;;0.88;0.32;;;19.70;66.50;;;;;;4915992;29;20518;-85
2021/07/16 05:07:40;;;;;;;0.00;0.00;;;19.70;66.50;;;;;;4913504;29;20518;-84
2021/07/16 05:10:07;;;;;;;0.28;0.15;;;19.70;66.50;;;;;;4963198;28;20043;-82
2021/07/16 05:12:34;;;;;;;3.13;0.17;;;19.70;66.60;;;;;;4914630;29;20043;-86
2021/07/16 05:15:01;;;;;;;0.43;0.13;;;19.70;66.60;;;;;;4914743;29;20040;-83
2021/07/16 05:17:27;;;;;;;0.20;0.00;;;19.70;66.70;;;;;;4915164;28;20038;-84
2021/07/16 05:19:53;;;;;;;0.38;0.03;;;19.80;66.60;;;;;;4916097;29;20399;-81
2021/07/16 05:22:19;;;;;;;0.22;0.10;;;19.90;66.40;;;;;;4916244;29;20035;-82
2021/07/16 05:24:45;;;;;;;0.30;0.10;;;20.10;66.20;;;;;;4914455;29;20387;-84
2021/07/16 05:27:11;;;;;;;0.52;0.10;;;20.20;65.90;;;;;;4915830;29;20024;-84
2021/07/16 05:29:38;;;;;;;0.22;0.00;;;20.40;65.80;;;;;;4915653;29;20499;-84
2021/07/16 05:32:04;;;;;;;2.20;0.32;;;20.40;65.70;;;;;;4945754;28;20055;-84
2021/07/16 05:34:30;;;;;;;0.10;0.00;;;20.50;65.70;;;;;;4915736;29;20400;-84
2021/07/16 05:36:56;;;;;;;0.38;0.13;;;20.50;65.70;;;;;;4946481;28;20044;-85
2021/07/16 05:39:22;;;;;;;0.50;0.20;;;20.60;65.60;;;;;;4915612;29;20036;-84
2021/07/16 05:41:48;;;;;;;0.38;0.13;;;20.60;65.60;;;;;;4915571;29;20028;-83
2021/07/16 05:44:14;;;;;;;0.75;0.20;;;20.60;65.50;;;;;;4915575;29;20043;-85
2021/07/16 05:46:40;;;;;;;0.00;0.00;;;20.70;65.40;;;;;;4915301;28;20056;-84
2021/07/16 05:49:07;;;;;;;0.38;0.25;;;20.70;65.40;;;;;;4930830;29;20048;-84
2021/07/16 05:51:33;;;;;;;0.28;0.10;;;20.80;65.30;;;;;;4913950;29;20446;-84
2021/07/16 05:53:59;;;;;;;0.25;0.10;;;20.90;65.30;;;;;;4914198;29;20039;-84
2021/07/16 05:56:25;;;;;;;1.25;0.38;;;20.90;65.00;;;;;;4945867;29;20356;-84
2021/07/16 05:58:51;;;;;;;1.98;0.20;;;20.90;65.00;;;;;;4917532;29;20036;-83
2021/07/16 06:01:17;;;;;;;0.25;0.15;;;20.90;65.00;;;;;;4919420;28;20040;-84
2021/07/16 06:03:43;;;;;;;0.20;0.05;;;20.90;64.90;;;;;;4918351;29;20036;-84
2021/07/16 06:06:09;;;;;;;0.10;0.00;;;20.90;64.80;;;;;;4919392;29;20499;-83
2021/07/16 06:08:35;;;;;;;0.55;0.17;;;21.10;64.70;;;;;;4931763;29;20502;-83
2021/07/16 06:11:02;;;;;;;0.20;0.10;;;21.20;64.20;;;;;;4919067;29;20036;-84
2021/07/16 06:13:28;;;;;;;1.27;0.08;;;21.30;63.90;;;;;;4931603;29;20399;-84
2021/07/16 06:15:54;;;;;;;0.10;0.00;;;21.40;63.80;;;;;;4918977;28;20395;-86
2021/07/16 06:18:22;;;;;;;0.30;0.10;;;21.40;63.70;;;;;;4933788;29;20052;-84
2021/07/16 06:20:49;;;;;;;0.38;0.20;;;21.40;63.70;;;;;;4919310;28;20040;-83
2021/07/16 06:23:16;;;;;;;0.35;0.25;;;21.40;63.70;;;;;;4919910;28;20495;-84
2021/07/16 06:25:43;;;;;;;0.15;0.00;;;21.50;63.60;;;;;;4917228;29;20118;-84
2021/07/16 06:28:09;;;;;;;0.10;0.00;;;21.60;63.20;;;;;;4919925;29;20399;-83
2021/07/16 06:30:36;;;;;;;0.40;0.10;;;21.60;63.10;;;;;;4918939;28;20407;-84
2021/07/16 06:33:02;;;;;;;2.40;0.10;;;21.60;63.10;;;;;;4918578;29;20032;-84
2021/07/16 06:35:28;;;;;;;0.43;0.32;;;21.70;63.10;;;;;;4914187;29;20036;-84
2021/07/16 06:37:54;;;;;;;0.10;0.05;;;21.80;62.70;;;;;;4919474;28;20040;-86
2021/07/16 06:40:20;;;;;;;0.13;0.00;;;21.90;62.50;;;;;;4919398;29;20032;-84
2021/07/16 06:42:46;;;;;;;1.08;0.10;;;21.90;62.20;;;;;;4949246;28;20391;-83
2021/07/16 06:45:12;;;;;;;0.30;0.15;;;21.80;62.10;;;;;;4918003;28;20040;-84
2021/07/16 06:47:38;;;;;;;0.28;0.08;;;21.80;62.20;;;;;;4918344;29;20051;-84
2021/07/16 06:50:05;;;;;;;0.15;0.00;;;21.80;61.90;;;;;;4917280;29;20028;-85
2021/07/16 06:52:33;;;;;;;0.98;0.50;;;21.90;61.80;;;;;;4919213;29;20037;-85
2021/07/16 06:55:00;;;;;;;0.00;0.00;;;22.00;61.70;;;;;;4919237;29;20063;-84
2021/07/16 06:57:26;;;;;;;0.00;0.00;;;22.00;61.50;;;;;;4918204;29;20039;-83
2021/07/16 06:59:52;;;;;;;0.75;0.10;;;22.10;61.20;;;;;;4918169;29;20032;-84
2021/07/16 07:02:18;;;;;;;0.00;0.00;;;22.10;60.90;;;;;;4916353;28;20028;-87
2021/07/16 07:04:44;;;;;;;0.00;0.00;;;22.10;60.80;;;;;;4918280;29;20376;-86
2021/07/16 07:07:10;;;;;;;0.20;0.10;;;22.20;60.70;;;;;;4918573;29;20056;-84
2021/07/16 07:09:36;;;;;;;0.43;0.20;;;22.20;60.40;;;;;;4916200;29;20059;-84
2021/07/16 07:12:03;;;;;;;0.10;0.10;;;22.30;60.40;;;;;;4916945;29;20028;-84
2021/07/16 07:14:29;;;;;;;0.20;0.05;;;22.30;60.20;;;;;;4918030;29;20032;-84
2021/07/16 07:16:55;;;;;;;0.10;0.00;;;22.30;60.00;;;;;;4916136;28;20047;-87
2021/07/16 07:19:21;;;;;;;0.30;0.30;;;22.30;60.10;;;;;;4918672;29;20028;-84
2021/07/16 07:21:47;;;;;;;0.22;0.00;;;22.30;60.00;;;;;;4916739;29;20039;-84
2021/07/16 07:24:13;;;;;;;3.03;0.15;;;22.10;59.90;;;;;;4916990;29;20472;-84
2021/07/16 07:26:39;;;;;;;0.10;0.00;;;22.10;60.00;;;;;;4917972;29;20047;-84
2021/07/16 07:29:05;;;;;;;0.00;0.00;;;22.00;60.20;;;;;;4918043;29;20029;-85
2021/07/16 07:31:31;;;;;;;0.20;0.20;;;21.80;60.20;;;;;;4917016;28;20036;-85
2021/07/16 07:33:57;;;;;;;0.05;0.00;;;21.70;60.50;;;;;;4918014;29;20036;-84
2021/07/16 07:36:23;;;;;;;0.45;0.00;;;21.60;60.70;;;;;;4917985;29;20541;-81
2021/07/16 07:38:50;;;;;;;0.10;0.00;;;21.60;60.70;;;;;;4917831;29;20032;-84
2021/07/16 07:41:16;;;;;;;0.00;0.00;;;21.50;60.60;;;;;;4917632;29;20509;-87
2021/07/16 07:43:42;;;;;;;4.78;0.28;;;21.40;60.70;;;;;;4917334;29;20032;-85
2021/07/16 07:46:08;;;;;;;0.60;0.15;;;21.30;60.80;;;;;;4917074;28;20036;-83
2021/07/16 07:48:34;;;;;;;0.20;0.00;;;21.20;60.80;;;;;;4928876;29;20045;-85
2021/07/16 07:51:00;;;;;;;0.03;0.00;;;21.20;60.90;;;;;;4932218;29;20037;-84
2021/07/16 07:53:26;;;;;;;0.05;0.00;;;21.20;60.80;;;;;;4917536;29;20027;-85
2021/07/16 07:55:52;;;;;;;0.00;0.00;;;21.10;60.80;;;;;;4917445;29;20036;-85
2021/07/16 07:58:18;;;;;;;0.60;0.10;;;21.10;60.80;;;;;;4948550;29;20031;-86
2021/07/16 08:00:44;;;;;;;0.00;0.00;;;21.00;60.80;;;;;;4916462;28;20384;-85
2021/07/16 08:03:11;;;;;;;0.17;0.00;;;21.00;60.70;;;;;;4912715;29;20043;-85
2021/07/16 08:05:37;;;;;;;0.20;0.13;;;21.00;60.70;;;;;;4907706;29;20036;-84
2021/07/16 08:08:03;;;;;;;0.00;0.00;;;21.00;60.60;;;;;;4915944;29;20040;-85
2021/07/16 08:10:29;;;;;;;0.20;0.10;;;21.00;60.60;;;;;;4917094;29;20039;-84
2021/07/16 08:12:55;;;;;;;0.28;0.20;;;21.00;60.60;;;;;;4917235;29;20036;-86
2021/07/16 08:15:22;;;;;;;0.55;0.20;;;21.00;60.50;;;;;;4916370;28;20435;-85
2021/07/16 08:17:48;;;;;;;0.20;0.10;;;21.10;60.50;;;;;;4916664;29;20055;-85
2021/07/16 08:20:14;;;;;;;0.20;0.00;;;21.00;60.40;;;;;;4917097;29;20499;-84
2021/07/16 08:22:40;;;;;;;0.52;0.10;;;21.00;60.50;;;;;;4916763;29;20032;-85
2021/07/16 08:25:07;;;;;;;0.00;0.00;;;21.00;60.40;;;;;;4947961;29;20036;-84
2021/07/16 08:27:33;;;;;;;0.20;0.08;;;21.00;61.20;;;;;;4916658;29;20052;-85
2021/07/16 08:29:59;;;;;;;0.20;0.20;;;21.00;60.50;;;;;;4916257;29;20040;-85
2021/07/16 08:32:26;;;;;;;0.10;0.08;;;21.00;60.40;;;;;;4911783;28;20029;-85
2021/07/16 08:34:52;;;;;;;0.35;0.08;;;21.10;60.30;;;;;;4916322;29;20044;-85
2021/07/16 08:37:18;;;;;;;0.45;0.10;;;21.00;60.30;;;;;;4947467;29;20031;-85
2021/07/16 08:39:44;;;;;;;0.38;0.00;;;21.00;60.30;;;;;;4931245;29;20429;-85
2021/07/16 08:42:10;;;;;;;0.15;0.05;;;21.00;60.20;;;;;;4916617;29;20028;-86
2021/07/16 08:44:37;;;;;;;1.55;0.68;;;21.00;60.30;;;;;;4947165;28;20048;-84
2021/07/16 08:47:03;;;;;;;0.55;0.20;;;21.00;60.30;;;;;;4915949;28;20488;-84
2021/07/16 08:49:29;;;;;;;0.32;0.10;;;21.10;60.30;;;;;;4916471;29;20032;-84
2021/07/16 08:51:55;;;;;;;0.28;0.17;;;21.20;60.20;;;;;;4931335;29;20048;-86
2021/07/16 08:54:21;;;;;;;0.70;0.13;;;21.20;60.00;;;;;;4914946;29;20434;-84
2021/07/16 08:56:47;;;;;;;0.08;0.00;;;21.30;60.00;;;;;;4916076;29;20040;-84
2021/07/16 08:59:16;;;;;;;0.08;0.08;;;21.30;60.00;;;;;;4915920;29;20084;-84
2021/07/16 09:01:44;;;;;;;0.00;0.00;;;21.30;59.90;;;;;;4913748;28;20484;-84
2021/07/16 09:04:10;;;;;;;0.00;0.00;;;21.30;59.80;;;;;;4946721;29;20035;-85
2021/07/16 09:06:48;;;;;;;0.55;0.20;;;21.20;59.80;;;;;;4916034;29;20040;-84
2021/07/16 09:09:19;;;;;;;0.70;0.00;;;21.20;60.00;;;;;;4915980;29;20036;-84
2021/07/16 09:11:47;;;;;;;0.20;0.10;;;21.20;60.00;;;;;;4929665;29;20035;-85
2021/07/16 09:14:27;;;;;;;0.80;0.22;;;21.20;60.00;;;;;;4915693;29;20039;-85
2021/07/16 09:16:58;;;;;;;0.00;0.00;;;21.20;60.00;;;;;;4899668;29;20032;-84
2021/07/16 09:19:27;;;;;;;0.00;0.00;;;21.20;60.00;;;;;;4927988;29;20036;-85
2021/07/16 09:22:09;;;;;;;8.02;0.25;;;21.20;60.00;;;;;;4946900;28;20036;-85
2021/07/16 09:24:39;;;;;;;0.00;0.00;;;21.20;59.90;;;;;;4916599;28;20044;-84
2021/07/16 09:27:40;;;;;;;0.13;0.10;;;21.20;59.90;;;;;;4911456;29;20033;-85
2021/07/16 09:30:20;;;;;;;0.65;0.10;;;21.10;59.90;;;;;;4940426;28;20035;-84
2021/07/16 09:32:51;;;;;;;0.00;0.00;;;21.00;60.00;;;;;;4916010;29;20043;-84
2021/07/16 09:35:34;;;;;;;0.20;0.20;;;20.90;60.30;;;;;;4915654;29;20039;-84
2021/07/16 09:38:07;;;;;;;0.10;0.10;;;20.80;60.30;;;;;;4900542;29;20036;-87
2021/07/16 09:40:46;;;;;;;0.38;0.20;;;20.90;60.50;;;;;;4915065;29;20403;-87
2021/07/16 09:43:13;;;;;;;0.40;0.00;;;20.90;60.40;;;;;;4945114;29;20032;-86
2021/07/16 09:45:44;;;;;;;0.65;0.28;;;20.90;60.30;;;;;;4915261;28;20032;-85
2021/07/16 09:48:20;;;;;;;0.40;0.20;;;20.90;60.30;;;;;;4914671;29;20487;-84
2021/07/16 09:50:46;;;;;;;0.28;0.05;;;20.90;60.40;;;;;;4929525;29;20510;-84
2021/07/16 09:53:29;;;;;;;0.00;0.00;;;20.90;60.60;;;;;;4914706;29;20035;-85
2021/07/16 09:56:11;;;;;;;0.38;0.15;;;20.90;60.60;;;;;;4901679;29;20052;-85
2021/07/16 09:58:37;;;;;;;0.15;0.10;;;21.00;60.40;;;;;;4915784;29;20492;-84
2021/07/16 10:01:04;;;;;;;0.32;0.20;;;21.10;60.30;;;;;;4946076;28;20046;-85
2021/07/16 10:03:30;;;;;;;0.70;0.15;;;21.10;60.10;;;;;;4929981;29;20476;-85
2021/07/16 10:05:56;;;;;;;0.52;0.13;;;21.30;60.00;;;;;;4927174;29;20040;-85
2021/07/16 10:08:23;;;;;;;1.70;0.15;;;21.30;59.90;;;;;;4934450;29;20044;-84
2021/07/16 10:10:50;;;;;;;0.22;0.08;;;21.30;59.90;;;;;;4929720;29;20043;-84
2021/07/16 10:13:16;;;;;;;0.00;0.00;;;21.30;60.20;;;;;;4962479;28;20031;-84
2021/07/16 10:15:43;;;;;;;1.00;0.20;;;21.20;60.20;;;;;;4915711;28;20055;-85
2021/07/16 10:18:10;;;;;;;0.00;0.00;;;21.10;60.20;;;;;;4914162;29;20036;-85
2021/07/16 10:20:36;;;;;;;0.40;0.10;;;21.20;60.30;;;;;;4915336;29;20032;-85
2021/07/16 10:23:02;;;;;;;0.13;0.00;;;21.10;60.30;;;;;;4914495;29;20036;-84
2021/07/16 10:25:28;;;;;;;0.30;0.10;;;21.00;60.40;;;;;;4915089;29;20510;-85
2021/07/16 10:27:54;;;;;;;0.57;0.10;;;21.00;60.60;;;;;;4946371;29;20067;-85
2021/07/16 10:30:21;;;;;;;0.47;0.35;;;21.00;60.60;;;;;;4913697;28;20029;-85
2021/07/16 10:32:52;;;;;;;0.25;0.10;;;21.00;60.60;;;;;;4913266;29;20033;-84
2021/07/16 10:35:37;;;;;;;0.28;0.05;;;21.00;60.60;;;;;;4916090;28;20048;-85
2021/07/16 10:38:05;;;;;;;0.00;0.00;;;21.00;60.60;;;;;;4914408;29;20032;-85
2021/07/16 10:40:44;;;;;;;1.27;0.57;;;21.10;60.50;;;;;;4945445;29;20040;-84
2021/07/16 10:43:25;;;;;;;0.47;0.38;;;21.10;60.40;;;;;;4915589;29;20024;-84
2021/07/16 10:45:51;;;;;;;;;;;21.10;60.40;;;;;;4916992;28;20059;-85
2021/07/16 10:48:19;;;;;;;0.00;0.00;;;21.00;60.40;;;;;;4949234;29;19911;-84
2021/07/16 10:50:51;;;;;;;0.30;0.00;;;21.10;60.30;;;;;;4919073;28;20407;-85
2021/07/16 10:53:38;;;;;;;2.05;0.32;;;21.10;60.30;;;;;;4917391;29;20043;-84
2021/07/16 10:56:08;;;;;;;0.00;0.00;;;21.10;60.30;;;;;;4948854;28;20415;-84
2021/07/16 10:58:34;;;;;;;0.00;0.00;;;21.10;60.10;;;;;;4915342;29;20480;-86
2021/07/16 11:01:05;;;;;;;0.70;0.10;;;21.20;60.10;;;;;;4918997;28;20051;-85
2021/07/16 11:03:49;;;;;;;0.15;0.10;;;21.30;60.00;;;;;;4917129;29;20035;-84
2021/07/16 11:06:16;;;;;;;5.20;0.40;;;21.40;59.70;;;;;;4917545;29;20040;-84
2021/07/16 11:08:42;;;;;;;0.00;0.00;;;21.50;59.50;;;;;;4917956;29;20058;-84
2021/07/16 11:11:21;;;;;;;0.00;0.00;;;21.50;59.40;;;;;;4918196;29;20407;-85
2021/07/16 11:13:55;;;;;;;0.28;0.10;;;21.60;59.40;;;;;;4916717;29;20032;-85
2021/07/16 11:16:25;;;;;;;0.47;0.10;;;21.70;59.10;;;;;;4918217;28;20551;-85
2021/07/16 11:19:09;;;;;;;0.38;0.10;;;21.60;59.10;;;;;;4918617;28;20044;-84
2021/07/16 11:21:51;;;;;;;0.38;0.17;;;21.60;59.20;;;;;;4917835;29;20036;-85
2021/07/16 11:26:52;;;;;;;0.80;0.20;;;21.80;58.90;;;;;;4920755;29;20119;-84
2021/07/16 11:29:21;;;;;;;0.30;0.22;;;21.80;58.90;;;;;;4917963;29;20039;-84
2021/07/16 11:31:47;;;;;;;0.10;0.00;;;21.80;58.90;;;;;;4931750;28;20044;-84
2021/07/16 11:34:17;;;;;;;0.22;0.10;;;21.80;58.80;;;;;;4918206;29;20032;-84
2021/07/16 11:36:52;;;;;;;0.03;0.00;;;21.80;58.90;;;;;;4929438;29;20045;-85
2021/07/16 11:39:28;;;;;;;0.00;0.00;;;21.80;58.80;;;;;;4913220;29;20032;-86
2021/07/16 11:41:54;;;;;;;0.00;0.00;;;22.00;59.40;;;;;;4917580;29;20496;-85
2021/07/16 11:44:31;;;;;;;0.25;0.10;;;22.00;58.60;;;;;;4913186;29;20043;-86
2021/07/16 11:46:58;;;;;;;0.08;0.08;;;22.10;58.60;;;;;;4918318;28;20036;-85
2021/07/16 11:49:26;;;;;;;1.10;0.00;;;22.20;58.40;;;;;;4913570;29;20040;-86
2021/07/16 11:51:59;;;;;;;0.00;0.00;;;22.30;58.30;;;;;;4917451;29;20055;-84
2021/07/16 11:54:28;;;;;;;0.38;0.13;;;22.30;58.20;;;;;;4917037;29;20028;-86
2021/07/16 11:56:58;;;;;;;0.00;0.00;;;22.30;58.20;;;;;;4915687;29;20036;-84
2021/07/16 11:59:25;;;;;;;0.10;0.08;;;22.30;58.10;;;;;;4917463;29;20031;-84
2021/07/16 12:02:10;;;;;;;0.65;0.17;;;22.30;58.00;;;;;;4931535;28;20039;-85
2021/07/16 12:04:40;;;;;;;3.03;0.40;;;22.40;58.00;;;;;;4945833;29;20043;-85
2021/07/16 12:07:07;;;;;;;1.25;0.28;;;22.40;57.90;;;;;;4915445;29;20052;-84
2021/07/16 12:09:34;;;;;;;0.10;0.00;;;22.40;57.90;;;;;;4931905;29;20039;-85
2021/07/16 12:12:14;;;;;;;0.00;0.00;;;22.40;58.00;;;;;;4916552;29;20491;-85
2021/07/16 12:15:02;;;;;;;0.57;0.10;;;22.30;58.00;;;;;;4916998;29;20028;-84
2021/07/16 12:17:40;;;;;;;0.20;0.00;;;22.40;58.10;;;;;;4911895;29;20052;-84
2021/07/16 12:20:08;;;;;;;0.10;0.10;;;22.40;58.00;;;;;;4915585;29;20032;-85
2021/07/16 12:22:35;;;;;;;7.32;0.13;;;22.40;57.90;;;;;;4916960;29;20403;-86
2021/07/16 12:25:01;;;;;;;0.52;0.22;;;22.50;57.90;;;;;;4964144;28;20039;-85
2021/07/16 12:27:28;;;;;;;0.43;0.25;;;22.50;57.90;;;;;;4947448;29;20028;-85
2021/07/16 12:30:07;;;;;;;0.40;0.20;;;22.60;57.90;;;;;;4916628;29;20032;-84
2021/07/16 12:32:39;;;;;;;0.20;0.13;;;22.60;57.70;;;;;;4911681;29;20056;-85
2021/07/16 12:35:26;;;;;;;1.38;0.00;;;22.70;57.60;;;;;;4915548;29;20032;-85
2021/07/16 12:37:59;;;;;;;0.20;0.20;;;22.70;57.60;;;;;;4900134;29;20032;-85
2021/07/16 12:40:25;;;;;;;0.20;0.20;;;22.70;57.50;;;;;;4959111;28;20036;-86
2021/07/16 12:43:12;;;;;;;0.32;0.30;;;22.70;57.50;;;;;;4916829;29;20032;-85
2021/07/16 12:45:55;;;;;;;0.00;0.00;;;22.60;57.70;;;;;;4914927;28;20051;-84
2021/07/16 12:48:26;;;;;;;0.30;0.10;;;22.70;57.80;;;;;;4916221;29;20028;-84
2021/07/16 12:50:52;;;;;;;1.05;0.28;;;22.70;57.60;;;;;;4916457;29;20047;-86
2021/07/16 12:53:32;;;;;;;0.30;0.20;;;22.80;57.60;;;;;;4931155;29;20055;-84
2021/07/16 12:55:58;;;;;;;0.28;0.00;;;23.00;57.40;;;;;;4915225;29;20431;-84